Toba, Argentina
Current Conditions -  °F | °C
As of 9:00 PM on Friday 31 Oct 2014 (Local Time) from SARE Reporting Station
Clear Clear  
Wind Chill: 77°   Ceiling: Unl
Heat Index: 79°   Visibility: 4mi
Dew Point: 68°   Wind: 9mph
Humidity: 74%   Direction: 110°ESE
Pressure: 29.8"   Gusts: NA
Location:  29.25°S, 60.18°W
Report Text: SARE 010000Z 11008KT 7000 NSC 25/20 Q1009
Loading
Personal Weather Stations






























Interactive Weather Map
Tropical Storm Tracking
New forecast layout! Learn more

10-Day Weather Forecast

Advertisements
Track Severe Weather on mobile